Startpagina
METAR-TAF:

METAR-TAF

Vliegvelden :

Militair vliegvled

Ämari, Estland

breedte: 59-15-44N, lengte: 24-13-07E, hoogte: 20 m

Actueel weer

Dit bericht is 52 minuten geleden gemaakt, om 17:50 UTC
Wind 6 kt uit het westen
Temperatuur 11°C
Vochtigheid 82%
Druk 1020 hPa
Zicht 10 km of meer
Weinig wolken op 2800 ft

METAR: EEEI 191750Z 27006KT 9999 FEW028 11/08 Q1020 NOSIG

Tijdstip: 21:42 (18:42 UTC)

Verwachting

Dit bericht is 1 uur en het 12 minuten geleden gemaakt, om 17:30 UTC
Verwachting geldig van 19 om 18 UTC tot 20 om 18 UTC
Wind 8 kt uit het westen
Zicht 10 km of meer
Weinig wolken op 3000 ft
Kans 30% :
Tijdelijke
van 20 om 01 UTC tot 20 om 04 UTC
Zicht: 4000 m
Verspreide wolken op 300 ft
mistbanken

TAF: EEEI 191730Z 1918/2018 28008KT 9999 FEW030 PROB30 TEMPO 2001/2004 4000 BCFG SCT003

Waarnemingen en weersverwachtingen van meer dan 4000 vliegvelden (METAR en TAF).

De beschikbare stations zijn de gele en rode punten op de kaart.

Ga met uw muis naar het station om de naam te zien.

Klik dan om waarnemingen en weersverwachtingen te zien.

kaart wijzigen: klik op de groene knoppen met een zwart kruis om in te zoomen, op de groene knop met een streepje om uit te zoomen of op de groene pijlen voor aangrenzende kaarten.


METAR-TAF: